sensor_id;sensor_type;location;lat;lon;timestamp;temperature;humidity
39371;DHT22;25099;51.946;4.838;2022-12-07T00:00:05;3.80;99.90
39371;DHT22;25099;51.946;4.838;2022-12-07T00:02:31;3.80;99.90
39371;DHT22;25099;51.946;4.838;2022-12-07T00:04:56;3.90;99.90
39371;DHT22;25099;51.946;4.838;2022-12-07T00:07:22;3.90;99.90
39371;DHT22;25099;51.946;4.838;2022-12-07T00:09:48;3.90;99.90
39371;DHT22;25099;51.946;4.838;2022-12-07T00:12:13;3.90;99.90
39371;DHT22;25099;51.946;4.838;2022-12-07T00:14:39;4.00;99.90
39371;DHT22;25099;51.946;4.838;2022-12-07T00:17:04;4.10;99.90
39371;DHT22;25099;51.946;4.838;2022-12-07T00:19:30;4.20;99.90
39371;DHT22;25099;51.946;4.838;2022-12-07T00:21:55;4.30;99.90
39371;DHT22;25099;51.946;4.838;2022-12-07T00:24:21;4.40;99.90
39371;DHT22;25099;51.946;4.838;2022-12-07T00:26:47;4.40;99.90
39371;DHT22;25099;51.946;4.838;2022-12-07T00:29:18;4.30;99.90
39371;DHT22;25099;51.946;4.838;2022-12-07T00:31:43;4.30;99.90
39371;DHT22;25099;51.946;4.838;2022-12-07T00:34:15;4.20;99.90
39371;DHT22;25099;51.946;4.838;2022-12-07T00:36:41;4.20;99.90
39371;DHT22;25099;51.946;4.838;2022-12-07T00:39:07;4.30;99.90
39371;DHT22;25099;51.946;4.838;2022-12-07T00:41:34;4.30;99.90
39371;DHT22;25099;51.946;4.838;2022-12-07T00:43:59;4.30;99.90
39371;DHT22;25099;51.946;4.838;2022-12-07T00:46:25;4.30;99.90
39371;DHT22;25099;51.946;4.838;2022-12-07T00:48:52;4.30;99.90
39371;DHT22;25099;51.946;4.838;2022-12-07T00:51:21;4.20;99.90
39371;DHT22;25099;51.946;4.838;2022-12-07T00:53:47;4.20;99.90
39371;DHT22;25099;51.946;4.838;2022-12-07T00:56:15;4.10;99.90
39371;DHT22;25099;51.946;4.838;2022-12-07T00:58:41;4.00;99.90
39371;DHT22;25099;51.946;4.838;2022-12-07T01:01:08;3.90;99.90
39371;DHT22;25099;51.946;4.838;2022-12-07T01:03:34;3.90;99.90
39371;DHT22;25099;51.946;4.838;2022-12-07T01:05:59;3.80;99.90
39371;DHT22;25099;51.946;4.838;2022-12-07T01:08:26;3.80;99.90
39371;DHT22;25099;51.946;4.838;2022-12-07T01:11:06;3.80;99.90
39371;DHT22;25099;51.946;4.838;2022-12-07T01:13:34;3.90;99.90
39371;DHT22;25099;51.946;4.838;2022-12-07T01:16:02;3.90;99.90
39371;DHT22;25099;51.946;4.838;2022-12-07T01:18:30;4.00;99.90
39371;DHT22;25099;51.946;4.838;2022-12-07T01:23:33;3.90;99.90
39371;DHT22;25099;51.946;4.838;2022-12-07T01:26:05;3.90;99.90
39371;DHT22;25099;51.946;4.838;2022-12-07T01:28:31;4.00;99.90
39371;DHT22;25099;51.946;4.838;2022-12-07T01:31:06;4.00;99.90
39371;DHT22;25099;51.946;4.838;2022-12-07T01:33:34;4.10;99.90
39371;DHT22;25099;51.946;4.838;2022-12-07T01:36:06;4.10;99.90
39371;DHT22;25099;51.946;4.838;2022-12-07T01:38:33;4.10;99.90
39371;DHT22;25099;51.946;4.838;2022-12-07T01:41:00;4.10;99.90
39371;DHT22;25099;51.946;4.838;2022-12-07T01:43:28;4.10;99.90
39371;DHT22;25099;51.946;4.838;2022-12-07T01:45:55;4.10;99.90
39371;DHT22;25099;51.946;4.838;2022-12-07T01:48:40;4.00;99.90
39371;DHT22;25099;51.946;4.838;2022-12-07T01:51:11;3.90;99.90
39371;DHT22;25099;51.946;4.838;2022-12-07T01:53:43;3.90;99.90
39371;DHT22;25099;51.946;4.838;2022-12-07T01:56:12;3.90;99.90
39371;DHT22;25099;51.946;4.838;2022-12-07T01:58:40;3.90;99.90
39371;DHT22;25099;51.946;4.838;2022-12-07T02:01:06;3.90;99.90
39371;DHT22;25099;51.946;4.838;2022-12-07T02:03:38;3.90;99.90
39371;DHT22;25099;51.946;4.838;2022-12-07T02:06:05;4.00;99.90
39371;DHT22;25099;51.946;4.838;2022-12-07T02:08:32;4.00;99.90
39371;DHT22;25099;51.946;4.838;2022-12-07T02:11:01;4.00;99.90
39371;DHT22;25099;51.946;4.838;2022-12-07T02:13:30;3.90;99.90
39371;DHT22;25099;51.946;4.838;2022-12-07T02:16:05;4.00;99.90
39371;DHT22;25099;51.946;4.838;2022-12-07T02:31:42;4.20;99.90
39371;DHT22;25099;51.946;4.838;2022-12-07T02:34:42;4.20;99.90
39371;DHT22;25099;51.946;4.838;2022-12-07T02:40:14;4.30;99.90
39371;DHT22;25099;51.946;4.838;2022-12-07T02:42:46;4.30;99.90
39371;DHT22;25099;51.946;4.838;2022-12-07T02:45:15;4.30;99.90
39371;DHT22;25099;51.946;4.838;2022-12-07T02:47:43;4.30;99.90
39371;DHT22;25099;51.946;4.838;2022-12-07T02:50:10;4.30;99.90
39371;DHT22;25099;51.946;4.838;2022-12-07T02:52:36;4.40;99.90
39371;DHT22;25099;51.946;4.838;2022-12-07T02:55:02;4.40;99.90
39371;DHT22;25099;51.946;4.838;2022-12-07T03:00:06;4.30;99.90
39371;DHT22;25099;51.946;4.838;2022-12-07T03:02:46;4.30;99.90
39371;DHT22;25099;51.946;4.838;2022-12-07T03:08:24;4.10;99.90
39371;DHT22;25099;51.946;4.838;2022-12-07T03:11:00;4.00;99.90
39371;DHT22;25099;51.946;4.838;2022-12-07T03:13:46;3.90;99.90
39371;DHT22;25099;51.946;4.838;2022-12-07T03:16:17;3.90;99.90
39371;DHT22;25099;51.946;4.838;2022-12-07T03:18:55;3.80;99.90
39371;DHT22;25099;51.946;4.838;2022-12-07T03:21:53;3.90;99.90
39371;DHT22;25099;51.946;4.838;2022-12-07T03:24:18;3.90;99.90
39371;DHT22;25099;51.946;4.838;2022-12-07T03:27:06;4.00;99.90
39371;DHT22;25099;51.946;4.838;2022-12-07T03:29:48;4.00;99.90
39371;DHT22;25099;51.946;4.838;2022-12-07T03:32:21;4.00;99.90
39371;DHT22;25099;51.946;4.838;2022-12-07T03:34:56;4.00;99.90
39371;DHT22;25099;51.946;4.838;2022-12-07T03:37:46;3.90;99.90
39371;DHT22;25099;51.946;4.838;2022-12-07T03:42:42;3.90;99.90
39371;DHT22;25099;51.946;4.838;2022-12-07T03:45:09;3.90;99.90
39371;DHT22;25099;51.946;4.838;2022-12-07T03:47:50;3.80;99.90
39371;DHT22;25099;51.946;4.838;2022-12-07T03:50:38;3.80;99.90
39371;DHT22;25099;51.946;4.838;2022-12-07T03:53:46;3.80;99.90
39371;DHT22;25099;51.946;4.838;2022-12-07T03:56:15;3.90;99.90
39371;DHT22;25099;51.946;4.838;2022-12-07T03:58:41;3.90;99.90
39371;DHT22;25099;51.946;4.838;2022-12-07T04:01:07;3.90;99.90
39371;DHT22;25099;51.946;4.838;2022-12-07T04:03:32;3.90;99.90
39371;DHT22;25099;51.946;4.838;2022-12-07T04:05:59;3.90;99.90
39371;DHT22;25099;51.946;4.838;2022-12-07T04:08:24;3.90;99.90
39371;DHT22;25099;51.946;4.838;2022-12-07T04:10:50;3.90;99.90
39371;DHT22;25099;51.946;4.838;2022-12-07T04:13:16;3.90;99.90
39371;DHT22;25099;51.946;4.838;2022-12-07T04:15:41;3.90;99.90
39371;DHT22;25099;51.946;4.838;2022-12-07T04:18:07;3.90;99.90
39371;DHT22;25099;51.946;4.838;2022-12-07T04:20:33;3.90;99.90
39371;DHT22;25099;51.946;4.838;2022-12-07T04:22:58;3.90;99.90
39371;DHT22;25099;51.946;4.838;2022-12-07T04:25:24;3.90;99.90
39371;DHT22;25099;51.946;4.838;2022-12-07T04:27:49;3.80;99.90
39371;DHT22;25099;51.946;4.838;2022-12-07T04:30:15;3.80;99.90
39371;DHT22;25099;51.946;4.838;2022-12-07T04:32:41;3.80;99.90
39371;DHT22;25099;51.946;4.838;2022-12-07T04:35:07;4.40;99.90
39371;DHT22;25099;51.946;4.838;2022-12-07T04:37:32;3.70;99.90
39371;DHT22;25099;51.946;4.838;2022-12-07T04:39:58;3.70;99.90
39371;DHT22;25099;51.946;4.838;2022-12-07T04:42:24;3.70;99.90
39371;DHT22;25099;51.946;4.838;2022-12-07T04:44:49;3.60;99.90
39371;DHT22;25099;51.946;4.838;2022-12-07T04:47:16;3.60;99.90
39371;DHT22;25099;51.946;4.838;2022-12-07T04:49:42;3.50;99.90
39371;DHT22;25099;51.946;4.838;2022-12-07T04:52:07;3.40;99.90
39371;DHT22;25099;51.946;4.838;2022-12-07T04:54:33;3.40;99.90
39371;DHT22;25099;51.946;4.838;2022-12-07T04:56:59;3.30;99.90
39371;DHT22;25099;51.946;4.838;2022-12-07T04:59:24;3.40;99.90
39371;DHT22;25099;51.946;4.838;2022-12-07T05:01:50;3.50;99.90
39371;DHT22;25099;51.946;4.838;2022-12-07T05:04:16;3.60;99.90
39371;DHT22;25099;51.946;4.838;2022-12-07T05:06:43;3.70;99.90
39371;DHT22;25099;51.946;4.838;2022-12-07T05:09:08;3.90;99.90
39371;DHT22;25099;51.946;4.838;2022-12-07T05:11:34;4.00;99.90
39371;DHT22;25099;51.946;4.838;2022-12-07T05:14:17;4.10;99.90
39371;DHT22;25099;51.946;4.838;2022-12-07T05:16:47;4.10;99.90
39371;DHT22;25099;51.946;4.838;2022-12-07T05:19:13;4.10;99.90
39371;DHT22;25099;51.946;4.838;2022-12-07T05:21:38;4.10;99.90
39371;DHT22;25099;51.946;4.838;2022-12-07T05:24:05;4.10;99.90
39371;DHT22;25099;51.946;4.838;2022-12-07T05:26:31;4.00;99.90
39371;DHT22;25099;51.946;4.838;2022-12-07T05:28:57;3.90;99.90
39371;DHT22;25099;51.946;4.838;2022-12-07T05:31:24;3.90;99.90
39371;DHT22;25099;51.946;4.838;2022-12-07T05:33:49;3.80;99.90
39371;DHT22;25099;51.946;4.838;2022-12-07T05:36:15;4.00;99.90
39371;DHT22;25099;51.946;4.838;2022-12-07T05:38:41;3.90;99.90
39371;DHT22;25099;51.946;4.838;2022-12-07T05:41:07;3.80;99.90
39371;DHT22;25099;51.946;4.838;2022-12-07T05:43:53;3.70;99.90
39371;DHT22;25099;51.946;4.838;2022-12-07T05:46:19;3.70;99.90
39371;DHT22;25099;51.946;4.838;2022-12-07T05:48:44;3.60;99.90
39371;DHT22;25099;51.946;4.838;2022-12-07T05:51:10;3.60;99.90
39371;DHT22;25099;51.946;4.838;2022-12-07T05:53:35;3.50;99.90
39371;DHT22;25099;51.946;4.838;2022-12-07T05:56:01;3.50;99.90
39371;DHT22;25099;51.946;4.838;2022-12-07T05:58:26;3.40;99.90
39371;DHT22;25099;51.946;4.838;2022-12-07T06:01:10;3.40;99.90
39371;DHT22;25099;51.946;4.838;2022-12-07T06:03:36;3.50;99.90
39371;DHT22;25099;51.946;4.838;2022-12-07T06:06:01;3.60;99.90
39371;DHT22;25099;51.946;4.838;2022-12-07T06:08:27;3.70;99.90
39371;DHT22;25099;51.946;4.838;2022-12-07T06:10:55;3.80;99.90
39371;DHT22;25099;51.946;4.838;2022-12-07T06:13:40;3.70;99.90
39371;DHT22;25099;51.946;4.838;2022-12-07T06:16:06;3.60;99.90
39371;DHT22;25099;51.946;4.838;2022-12-07T06:18:32;3.60;99.90
39371;DHT22;25099;51.946;4.838;2022-12-07T06:20:57;3.60;99.90
39371;DHT22;25099;51.946;4.838;2022-12-07T06:23:23;3.50;99.90
39371;DHT22;25099;51.946;4.838;2022-12-07T06:25:48;3.50;99.90
39371;DHT22;25099;51.946;4.838;2022-12-07T06:28:14;3.50;99.90
39371;DHT22;25099;51.946;4.838;2022-12-07T06:30:39;3.40;99.90
39371;DHT22;25099;51.946;4.838;2022-12-07T06:33:05;3.40;99.90
39371;DHT22;25099;51.946;4.838;2022-12-07T06:35:32;3.30;99.90
39371;DHT22;25099;51.946;4.838;2022-12-07T06:37:58;3.30;99.90
39371;DHT22;25099;51.946;4.838;2022-12-07T06:40:27;3.20;99.90
39371;DHT22;25099;51.946;4.838;2022-12-07T06:42:52;3.10;99.90
39371;DHT22;25099;51.946;4.838;2022-12-07T06:45:18;3.10;99.90
39371;DHT22;25099;51.946;4.838;2022-12-07T06:47:43;3.00;99.90
39371;DHT22;25099;51.946;4.838;2022-12-07T06:50:09;3.00;99.90
39371;DHT22;25099;51.946;4.838;2022-12-07T06:52:35;2.90;99.90
39371;DHT22;25099;51.946;4.838;2022-12-07T06:55:00;2.90;99.90
39371;DHT22;25099;51.946;4.838;2022-12-07T06:57:26;2.90;99.90
39371;DHT22;25099;51.946;4.838;2022-12-07T06:59:52;2.80;99.90
39371;DHT22;25099;51.946;4.838;2022-12-07T07:02:17;2.90;99.90
39371;DHT22;25099;51.946;4.838;2022-12-07T07:04:43;2.90;99.90
39371;DHT22;25099;51.946;4.838;2022-12-07T07:07:09;3.00;99.90
39371;DHT22;25099;51.946;4.838;2022-12-07T07:09:34;3.00;99.90
39371;DHT22;25099;51.946;4.838;2022-12-07T07:12:00;3.00;99.90
39371;DHT22;25099;51.946;4.838;2022-12-07T07:14:26;3.20;99.90
39371;DHT22;25099;51.946;4.838;2022-12-07T07:16:52;3.20;99.90
39371;DHT22;25099;51.946;4.838;2022-12-07T07:19:17;3.30;99.90
39371;DHT22;25099;51.946;4.838;2022-12-07T07:21:44;3.30;99.90
39371;DHT22;25099;51.946;4.838;2022-12-07T07:24:13;3.30;99.90
39371;DHT22;25099;51.946;4.838;2022-12-07T07:26:38;3.20;99.90
39371;DHT22;25099;51.946;4.838;2022-12-07T07:29:04;3.10;99.90
39371;DHT22;25099;51.946;4.838;2022-12-07T07:31:30;3.00;99.90
39371;DHT22;25099;51.946;4.838;2022-12-07T07:33:55;3.00;99.90
39371;DHT22;25099;51.946;4.838;2022-12-07T07:36:21;2.90;99.90
39371;DHT22;25099;51.946;4.838;2022-12-07T07:38:46;2.80;99.90
39371;DHT22;25099;51.946;4.838;2022-12-07T07:41:12;2.70;99.90
39371;DHT22;25099;51.946;4.838;2022-12-07T07:43:38;2.70;99.90
39371;DHT22;25099;51.946;4.838;2022-12-07T07:46:03;2.70;99.90
39371;DHT22;25099;51.946;4.838;2022-12-07T07:48:29;2.60;99.90
39371;DHT22;25099;51.946;4.838;2022-12-07T07:50:54;2.60;99.90
39371;DHT22;25099;51.946;4.838;2022-12-07T07:53:20;2.50;99.90
39371;DHT22;25099;51.946;4.838;2022-12-07T07:55:53;2.50;99.90
39371;DHT22;25099;51.946;4.838;2022-12-07T07:58:22;2.60;99.90
39371;DHT22;25099;51.946;4.838;2022-12-07T08:00:50;2.50;99.90
39371;DHT22;25099;51.946;4.838;2022-12-07T08:03:16;2.60;99.90
39371;DHT22;25099;51.946;4.838;2022-12-07T08:05:42;2.60;99.90
39371;DHT22;25099;51.946;4.838;2022-12-07T08:08:07;2.70;99.90
39371;DHT22;25099;51.946;4.838;2022-12-07T08:10:33;2.80;99.90
39371;DHT22;25099;51.946;4.838;2022-12-07T08:13:00;2.80;99.90
39371;DHT22;25099;51.946;4.838;2022-12-07T08:15:46;2.90;99.90
39371;DHT22;25099;51.946;4.838;2022-12-07T08:18:12;3.10;99.90
39371;DHT22;25099;51.946;4.838;2022-12-07T08:20:38;3.20;99.90
39371;DHT22;25099;51.946;4.838;2022-12-07T08:23:05;3.20;99.90
39371;DHT22;25099;51.946;4.838;2022-12-07T08:25:31;3.20;99.90
39371;DHT22;25099;51.946;4.838;2022-12-07T08:27:57;3.20;99.90
39371;DHT22;25099;51.946;4.838;2022-12-07T08:30:23;3.20;99.90
39371;DHT22;25099;51.946;4.838;2022-12-07T08:32:49;3.20;99.90
39371;DHT22;25099;51.946;4.838;2022-12-07T08:35:15;3.20;99.90
39371;DHT22;25099;51.946;4.838;2022-12-07T08:37:40;3.30;99.90
39371;DHT22;25099;51.946;4.838;2022-12-07T08:40:08;3.30;99.90
39371;DHT22;25099;51.946;4.838;2022-12-07T08:42:34;3.30;99.90
39371;DHT22;25099;51.946;4.838;2022-12-07T08:45:13;3.30;99.90
39371;DHT22;25099;51.946;4.838;2022-12-07T08:47:46;3.30;99.90
39371;DHT22;25099;51.946;4.838;2022-12-07T08:50:13;3.40;99.90
39371;DHT22;25099;51.946;4.838;2022-12-07T08:52:40;3.50;99.90
39371;DHT22;25099;51.946;4.838;2022-12-07T08:55:08;3.60;99.90
39371;DHT22;25099;51.946;4.838;2022-12-07T08:57:35;3.80;99.90
39371;DHT22;25099;51.946;4.838;2022-12-07T09:00:02;4.00;99.90
39371;DHT22;25099;51.946;4.838;2022-12-07T09:02:28;4.10;99.90
39371;DHT22;25099;51.946;4.838;2022-12-07T09:04:54;4.20;99.90
39371;DHT22;25099;51.946;4.838;2022-12-07T09:07:20;4.20;99.90
39371;DHT22;25099;51.946;4.838;2022-12-07T09:09:45;4.30;99.90
39371;DHT22;25099;51.946;4.838;2022-12-07T09:12:11;4.40;99.90
39371;DHT22;25099;51.946;4.838;2022-12-07T09:14:36;4.40;99.90
39371;DHT22;25099;51.946;4.838;2022-12-07T09:17:06;4.50;99.90
39371;DHT22;25099;51.946;4.838;2022-12-07T09:19:32;4.50;99.90
39371;DHT22;25099;51.946;4.838;2022-12-07T09:22:01;4.50;99.90
39371;DHT22;25099;51.946;4.838;2022-12-07T09:24:26;4.50;99.90
39371;DHT22;25099;51.946;4.838;2022-12-07T09:26:52;4.50;99.90
39371;DHT22;25099;51.946;4.838;2022-12-07T09:29:17;4.60;99.90
39371;DHT22;25099;51.946;4.838;2022-12-07T09:31:43;4.60;99.90
39371;DHT22;25099;51.946;4.838;2022-12-07T09:34:09;4.70;99.90
39371;DHT22;25099;51.946;4.838;2022-12-07T09:36:34;4.80;99.90
39371;DHT22;25099;51.946;4.838;2022-12-07T09:39:00;4.90;99.90
39371;DHT22;25099;51.946;4.838;2022-12-07T09:41:27;5.00;99.90
39371;DHT22;25099;51.946;4.838;2022-12-07T09:46:35;5.40;99.90
39371;DHT22;25099;51.946;4.838;2022-12-07T09:49:02;5.50;99.90
39371;DHT22;25099;51.946;4.838;2022-12-07T09:51:28;5.50;99.90
39371;DHT22;25099;51.946;4.838;2022-12-07T09:53:56;5.60;99.90
39371;DHT22;25099;51.946;4.838;2022-12-07T09:56:23;5.70;99.90
39371;DHT22;25099;51.946;4.838;2022-12-07T09:58:50;5.60;99.90
39371;DHT22;25099;51.946;4.838;2022-12-07T10:01:21;5.60;99.90
39371;DHT22;25099;51.946;4.838;2022-12-07T10:03:52;5.50;99.90
39371;DHT22;25099;51.946;4.838;2022-12-07T10:06:18;5.50;99.90
39371;DHT22;25099;51.946;4.838;2022-12-07T10:08:44;5.50;99.90
39371;DHT22;25099;51.946;4.838;2022-12-07T10:11:10;5.40;99.90
39371;DHT22;25099;51.946;4.838;2022-12-07T10:16:25;5.40;99.90
39371;DHT22;25099;51.946;4.838;2022-12-07T10:18:53;5.30;99.90
39371;DHT22;25099;51.946;4.838;2022-12-07T10:21:24;5.20;99.90
39371;DHT22;25099;51.946;4.838;2022-12-07T10:26:49;5.20;99.90
39371;DHT22;25099;51.946;4.838;2022-12-07T10:29:20;5.20;99.90
39371;DHT22;25099;51.946;4.838;2022-12-07T10:32:00;5.40;99.90
39371;DHT22;25099;51.946;4.838;2022-12-07T10:34:32;5.40;99.90
39371;DHT22;25099;51.946;4.838;2022-12-07T10:39:55;5.80;99.90
39371;DHT22;25099;51.946;4.838;2022-12-07T10:42:31;7.00;99.90
39371;DHT22;25099;51.946;4.838;2022-12-07T10:45:13;6.20;99.90
39371;DHT22;25099;51.946;4.838;2022-12-07T11:14:40;6.60;99.90
39371;DHT22;25099;51.946;4.838;2022-12-07T11:17:17;6.60;99.90
39371;DHT22;25099;51.946;4.838;2022-12-07T11:22:59;6.50;99.90
39371;DHT22;25099;51.946;4.838;2022-12-07T11:33:47;6.30;99.90
39371;DHT22;25099;51.946;4.838;2022-12-07T11:39:31;6.50;99.90
39371;DHT22;25099;51.946;4.838;2022-12-07T11:42:05;6.60;99.90
39371;DHT22;25099;51.946;4.838;2022-12-07T11:44:51;6.70;99.90
39371;DHT22;25099;51.946;4.838;2022-12-07T11:50:29;7.00;99.90
39371;DHT22;25099;51.946;4.838;2022-12-07T11:53:14;7.10;99.90
39371;DHT22;25099;51.946;4.838;2022-12-07T11:56:06;7.20;99.90
39371;DHT22;25099;51.946;4.838;2022-12-07T12:03:49;7.50;99.90
39371;DHT22;25099;51.946;4.838;2022-12-07T12:06:16;7.50;99.90
39371;DHT22;25099;51.946;4.838;2022-12-07T12:09:04;7.60;99.90
39371;DHT22;25099;51.946;4.838;2022-12-07T12:14:54;7.80;99.90
39371;DHT22;25099;51.946;4.838;2022-12-07T12:20:30;7.80;99.90
39371;DHT22;25099;51.946;4.838;2022-12-07T12:23:36;7.80;99.90
39371;DHT22;25099;51.946;4.838;2022-12-07T12:26:05;7.70;99.90
39371;DHT22;25099;51.946;4.838;2022-12-07T12:33:51;7.40;99.90
39371;DHT22;25099;51.946;4.838;2022-12-07T12:36:50;7.30;99.90
39371;DHT22;25099;51.946;4.838;2022-12-07T12:39:10;7.10;99.90
39371;DHT22;25099;51.946;4.838;2022-12-07T12:46:54;6.90;99.90
39371;DHT22;25099;51.946;4.838;2022-12-07T12:54:23;6.70;99.90
39371;DHT22;25099;51.946;4.838;2022-12-07T12:57:17;6.70;99.90
39371;DHT22;25099;51.946;4.838;2022-12-07T13:02:35;6.60;99.90
39371;DHT22;25099;51.946;4.838;2022-12-07T13:05:02;6.60;99.90
39371;DHT22;25099;51.946;4.838;2022-12-07T13:07:49;6.60;99.90
39371;DHT22;25099;51.946;4.838;2022-12-07T13:23:55;6.80;99.90
39371;DHT22;25099;51.946;4.838;2022-12-07T13:26:23;6.90;99.90
39371;DHT22;25099;51.946;4.838;2022-12-07T13:31:43;7.20;99.90
39371;DHT22;25099;51.946;4.838;2022-12-07T13:34:36;7.40;99.90
39371;DHT22;25099;51.946;4.838;2022-12-07T13:37:15;7.50;99.90
39371;DHT22;25099;51.946;4.838;2022-12-07T13:39:51;7.60;99.90
39371;DHT22;25099;51.946;4.838;2022-12-07T13:44:55;7.70;99.90
39371;DHT22;25099;51.946;4.838;2022-12-07T13:47:44;7.60;99.90
39371;DHT22;25099;51.946;4.838;2022-12-07T13:50:26;7.60;99.90
39371;DHT22;25099;51.946;4.838;2022-12-07T13:52:58;7.60;99.90
39371;DHT22;25099;51.946;4.838;2022-12-07T13:55:26;7.70;99.90
39371;DHT22;25099;51.946;4.838;2022-12-07T13:57:54;7.50;99.90
39371;DHT22;25099;51.946;4.838;2022-12-07T14:00:22;7.40;99.90
39371;DHT22;25099;51.946;4.838;2022-12-07T14:03:02;7.40;99.90
39371;DHT22;25099;51.946;4.838;2022-12-07T14:05:32;7.30;99.90
39371;DHT22;25099;51.946;4.838;2022-12-07T14:10:33;7.30;99.90
39371;DHT22;25099;51.946;4.838;2022-12-07T14:13:00;7.30;99.90
39371;DHT22;25099;51.946;4.838;2022-12-07T14:15:32;7.30;99.90
39371;DHT22;25099;51.946;4.838;2022-12-07T14:18:00;7.30;99.90
39371;DHT22;25099;51.946;4.838;2022-12-07T14:20:36;7.30;99.90
39371;DHT22;25099;51.946;4.838;2022-12-07T14:23:03;7.30;99.90
39371;DHT22;25099;51.946;4.838;2022-12-07T14:25:48;7.40;99.90
39371;DHT22;25099;51.946;4.838;2022-12-07T14:28:47;7.50;99.90
39371;DHT22;25099;51.946;4.838;2022-12-07T14:31:18;7.60;99.90
39371;DHT22;25099;51.946;4.838;2022-12-07T14:33:46;7.50;99.90
39371;DHT22;25099;51.946;4.838;2022-12-07T14:36:13;7.30;99.90
39371;DHT22;25099;51.946;4.838;2022-12-07T14:38:39;7.20;99.90
39371;DHT22;25099;51.946;4.838;2022-12-07T14:41:12;7.00;99.90
39371;DHT22;25099;51.946;4.838;2022-12-07T14:43:57;6.80;99.90
39371;DHT22;25099;51.946;4.838;2022-12-07T14:46:23;6.70;99.90
39371;DHT22;25099;51.946;4.838;2022-12-07T14:48:48;6.60;99.90
39371;DHT22;25099;51.946;4.838;2022-12-07T14:51:14;6.50;99.90
39371;DHT22;25099;51.946;4.838;2022-12-07T14:53:48;6.40;99.90
39371;DHT22;25099;51.946;4.838;2022-12-07T14:56:14;6.20;99.90
39371;DHT22;25099;51.946;4.838;2022-12-07T14:58:40;6.20;99.90
39371;DHT22;25099;51.946;4.838;2022-12-07T15:01:06;6.10;99.90
39371;DHT22;25099;51.946;4.838;2022-12-07T15:03:31;6.00;99.90
39371;DHT22;25099;51.946;4.838;2022-12-07T15:06:00;6.00;99.90
39371;DHT22;25099;51.946;4.838;2022-12-07T15:08:25;5.90;99.90
39371;DHT22;25099;51.946;4.838;2022-12-07T15:10:51;5.90;99.90
39371;DHT22;25099;51.946;4.838;2022-12-07T15:13:17;5.80;99.90
39371;DHT22;25099;51.946;4.838;2022-12-07T15:16:02;5.90;99.90
39371;DHT22;25099;51.946;4.838;2022-12-07T15:18:27;5.80;99.90
39371;DHT22;25099;51.946;4.838;2022-12-07T15:20:53;5.70;99.90
39371;DHT22;25099;51.946;4.838;2022-12-07T15:23:19;5.70;99.90
39371;DHT22;25099;51.946;4.838;2022-12-07T15:25:46;5.70;99.90
39371;DHT22;25099;51.946;4.838;2022-12-07T15:28:15;5.50;99.90
39371;DHT22;25099;51.946;4.838;2022-12-07T15:30:42;5.50;99.90
39371;DHT22;25099;51.946;4.838;2022-12-07T15:33:09;5.40;99.90
39371;DHT22;25099;51.946;4.838;2022-12-07T15:35:39;5.40;99.90
39371;DHT22;25099;51.946;4.838;2022-12-07T15:38:05;5.40;99.90
39371;DHT22;25099;51.946;4.838;2022-12-07T15:40:30;5.40;99.90
39371;DHT22;25099;51.946;4.838;2022-12-07T15:42:58;5.40;99.90
39371;DHT22;25099;51.946;4.838;2022-12-07T15:45:24;5.40;99.90
39371;DHT22;25099;51.946;4.838;2022-12-07T15:47:50;5.30;99.90
39371;DHT22;25099;51.946;4.838;2022-12-07T15:50:16;5.30;99.90
39371;DHT22;25099;51.946;4.838;2022-12-07T15:52:43;5.30;99.90
39371;DHT22;25099;51.946;4.838;2022-12-07T15:55:11;5.30;99.90
39371;DHT22;25099;51.946;4.838;2022-12-07T15:57:38;5.30;99.90
39371;DHT22;25099;51.946;4.838;2022-12-07T16:00:05;5.40;99.90
39371;DHT22;25099;51.946;4.838;2022-12-07T16:02:31;5.30;99.90
39371;DHT22;25099;51.946;4.838;2022-12-07T16:04:56;5.40;99.90
39371;DHT22;25099;51.946;4.838;2022-12-07T16:07:22;5.50;99.90
39371;DHT22;25099;51.946;4.838;2022-12-07T16:09:48;5.50;99.90
39371;DHT22;25099;51.946;4.838;2022-12-07T16:12:15;5.40;99.90
39371;DHT22;25099;51.946;4.838;2022-12-07T16:14:41;5.50;99.90
39371;DHT22;25099;51.946;4.838;2022-12-07T16:17:07;5.50;99.90
39371;DHT22;25099;51.946;4.838;2022-12-07T16:19:33;5.40;99.90
39371;DHT22;25099;51.946;4.838;2022-12-07T16:22:00;5.50;99.90
39371;DHT22;25099;51.946;4.838;2022-12-07T16:24:28;5.50;99.90
39371;DHT22;25099;51.946;4.838;2022-12-07T16:26:54;5.50;99.90
39371;DHT22;25099;51.946;4.838;2022-12-07T16:29:21;5.30;99.90
39371;DHT22;25099;51.946;4.838;2022-12-07T16:31:47;5.30;99.90
39371;DHT22;25099;51.946;4.838;2022-12-07T16:34:13;5.20;99.90
39371;DHT22;25099;51.946;4.838;2022-12-07T16:36:39;5.10;99.90
39371;DHT22;25099;51.946;4.838;2022-12-07T16:39:05;5.10;99.90
39371;DHT22;25099;51.946;4.838;2022-12-07T16:41:31;5.00;99.90
39371;DHT22;25099;51.946;4.838;2022-12-07T16:43:56;5.00;99.90
39371;DHT22;25099;51.946;4.838;2022-12-07T16:46:22;4.90;99.90
39371;DHT22;25099;51.946;4.838;2022-12-07T16:48:48;4.90;99.90
39371;DHT22;25099;51.946;4.838;2022-12-07T16:51:14;4.90;99.90
39371;DHT22;25099;51.946;4.838;2022-12-07T16:53:41;5.00;99.90
39371;DHT22;25099;51.946;4.838;2022-12-07T16:56:14;4.90;99.90
39371;DHT22;25099;51.946;4.838;2022-12-07T16:58:41;4.90;99.90
39371;DHT22;25099;51.946;4.838;2022-12-07T17:01:19;4.90;99.90
39371;DHT22;25099;51.946;4.838;2022-12-07T17:03:45;4.90;99.90
39371;DHT22;25099;51.946;4.838;2022-12-07T17:06:16;4.90;99.90
39371;DHT22;25099;51.946;4.838;2022-12-07T17:08:42;4.80;99.90
39371;DHT22;25099;51.946;4.838;2022-12-07T17:11:17;4.80;99.90
39371;DHT22;25099;51.946;4.838;2022-12-07T17:13:43;4.90;99.90
39371;DHT22;25099;51.946;4.838;2022-12-07T17:16:32;4.80;99.90
39371;DHT22;25099;51.946;4.838;2022-12-07T17:18:58;4.80;99.90
39371;DHT22;25099;51.946;4.838;2022-12-07T17:21:24;4.80;99.90
39371;DHT22;25099;51.946;4.838;2022-12-07T17:23:50;4.80;99.90
39371;DHT22;25099;51.946;4.838;2022-12-07T17:26:19;5.50;99.90
39371;DHT22;25099;51.946;4.838;2022-12-07T17:28:46;4.80;99.90
39371;DHT22;25099;51.946;4.838;2022-12-07T17:31:14;4.80;99.90
39371;DHT22;25099;51.946;4.838;2022-12-07T17:33:42;4.80;99.90
39371;DHT22;25099;51.946;4.838;2022-12-07T17:36:13;4.80;99.90
39371;DHT22;25099;51.946;4.838;2022-12-07T17:38:39;4.90;99.90
39371;DHT22;25099;51.946;4.838;2022-12-07T17:41:13;4.90;99.90
39371;DHT22;25099;51.946;4.838;2022-12-07T17:43:59;4.90;99.90
39371;DHT22;25099;51.946;4.838;2022-12-07T17:46:26;4.90;99.90
39371;DHT22;25099;51.946;4.838;2022-12-07T17:48:54;4.90;99.90
39371;DHT22;25099;51.946;4.838;2022-12-07T17:51:19;4.90;99.90
39371;DHT22;25099;51.946;4.838;2022-12-07T17:54:04;4.90;99.90
39371;DHT22;25099;51.946;4.838;2022-12-07T17:56:29;5.00;99.90
39371;DHT22;25099;51.946;4.838;2022-12-07T17:58:55;5.00;99.90
39371;DHT22;25099;51.946;4.838;2022-12-07T18:01:21;5.10;99.90
39371;DHT22;25099;51.946;4.838;2022-12-07T18:03:46;5.10;99.90
39371;DHT22;25099;51.946;4.838;2022-12-07T18:06:12;5.30;99.90
39371;DHT22;25099;51.946;4.838;2022-12-07T18:08:37;5.30;99.90
39371;DHT22;25099;51.946;4.838;2022-12-07T18:11:04;5.30;99.90